sensor_id;sensor_type;location;lat;lon;timestamp;temperature;humidity
43143;DHT22;28750;59.842;17.584;2022-08-25T00:01:53;10.30;99.90
43143;DHT22;28750;59.842;17.584;2022-08-25T00:04:21;10.30;99.90
43143;DHT22;28750;59.842;17.584;2022-08-25T00:06:48;10.40;99.90
43143;DHT22;28750;59.842;17.584;2022-08-25T00:09:19;10.40;99.90
43143;DHT22;28750;59.842;17.584;2022-08-25T00:11:47;10.30;99.90
43143;DHT22;28750;59.842;17.584;2022-08-25T00:14:23;10.20;99.90
43143;DHT22;28750;59.842;17.584;2022-08-25T00:16:50;10.10;99.90
43143;DHT22;28750;59.842;17.584;2022-08-25T00:19:21;10.10;99.90
43143;DHT22;28750;59.842;17.584;2022-08-25T00:21:49;10.10;99.90
43143;DHT22;28750;59.842;17.584;2022-08-25T00:24:17;10.10;99.90
43143;DHT22;28750;59.842;17.584;2022-08-25T00:26:48;10.00;99.90
43143;DHT22;28750;59.842;17.584;2022-08-25T00:29:16;9.90;99.90
43143;DHT22;28750;59.842;17.584;2022-08-25T00:31:44;10.00;99.90
43143;DHT22;28750;59.842;17.584;2022-08-25T00:34:19;10.00;99.90
43143;DHT22;28750;59.842;17.584;2022-08-25T00:36:47;10.00;99.90
43143;DHT22;28750;59.842;17.584;2022-08-25T00:39:18;10.00;99.90
43143;DHT22;28750;59.842;17.584;2022-08-25T00:41:47;10.00;99.90
43143;DHT22;28750;59.842;17.584;2022-08-25T00:44:15;10.00;99.90
43143;DHT22;28750;59.842;17.584;2022-08-25T00:46:55;9.90;99.90
43143;DHT22;28750;59.842;17.584;2022-08-25T00:49:42;9.90;99.90
43143;DHT22;28750;59.842;17.584;2022-08-25T00:54:52;9.90;99.90
43143;DHT22;28750;59.842;17.584;2022-08-25T00:57:27;9.90;99.90
43143;DHT22;28750;59.842;17.584;2022-08-25T00:59:56;9.80;99.90
43143;DHT22;28750;59.842;17.584;2022-08-25T01:02:23;9.70;99.90
43143;DHT22;28750;59.842;17.584;2022-08-25T01:04:50;9.70;99.90
43143;DHT22;28750;59.842;17.584;2022-08-25T01:07:19;9.70;99.90
43143;DHT22;28750;59.842;17.584;2022-08-25T01:09:49;9.70;99.90
43143;DHT22;28750;59.842;17.584;2022-08-25T01:12:18;9.70;99.90
43143;DHT22;28750;59.842;17.584;2022-08-25T01:14:45;9.70;99.90
43143;DHT22;28750;59.842;17.584;2022-08-25T01:17:14;9.70;99.90
43143;DHT22;28750;59.842;17.584;2022-08-25T01:19:42;9.60;99.90
43143;DHT22;28750;59.842;17.584;2022-08-25T01:22:09;9.60;99.90
43143;DHT22;28750;59.842;17.584;2022-08-25T01:24:38;9.50;99.90
43143;DHT22;28750;59.842;17.584;2022-08-25T01:27:07;9.50;99.90
43143;DHT22;28750;59.842;17.584;2022-08-25T01:29:35;9.60;99.90
43143;DHT22;28750;59.842;17.584;2022-08-25T01:32:07;9.60;99.90
43143;DHT22;28750;59.842;17.584;2022-08-25T01:34:37;9.60;99.90
43143;DHT22;28750;59.842;17.584;2022-08-25T01:37:06;9.60;99.90
43143;DHT22;28750;59.842;17.584;2022-08-25T01:39:34;9.50;99.90
43143;DHT22;28750;59.842;17.584;2022-08-25T01:44:31;9.50;99.90
43143;DHT22;28750;59.842;17.584;2022-08-25T01:46:59;9.50;99.90
43143;DHT22;28750;59.842;17.584;2022-08-25T01:49:26;9.60;99.90
43143;DHT22;28750;59.842;17.584;2022-08-25T01:52:23;9.50;99.90
43143;DHT22;28750;59.842;17.584;2022-08-25T01:54:47;9.50;99.90
43143;DHT22;28750;59.842;17.584;2022-08-25T01:57:14;9.50;99.90
43143;DHT22;28750;59.842;17.584;2022-08-25T01:59:41;9.50;99.90
43143;DHT22;28750;59.842;17.584;2022-08-25T02:02:09;9.30;99.90
43143;DHT22;28750;59.842;17.584;2022-08-25T02:04:36;9.30;99.90
43143;DHT22;28750;59.842;17.584;2022-08-25T02:07:06;9.30;99.90
43143;DHT22;28750;59.842;17.584;2022-08-25T02:09:34;9.30;99.90
43143;DHT22;28750;59.842;17.584;2022-08-25T02:12:02;9.30;99.90
43143;DHT22;28750;59.842;17.584;2022-08-25T02:14:29;9.20;99.90
43143;DHT22;28750;59.842;17.584;2022-08-25T02:16:56;9.10;99.90
43143;DHT22;28750;59.842;17.584;2022-08-25T02:19:24;9.10;99.90
43143;DHT22;28750;59.842;17.584;2022-08-25T02:21:51;9.10;99.90
43143;DHT22;28750;59.842;17.584;2022-08-25T02:24:18;9.00;99.90
43143;DHT22;28750;59.842;17.584;2022-08-25T02:26:45;9.00;99.90
43143;DHT22;28750;59.842;17.584;2022-08-25T02:29:12;9.00;99.90
43143;DHT22;28750;59.842;17.584;2022-08-25T02:31:39;9.10;99.90
43143;DHT22;28750;59.842;17.584;2022-08-25T02:34:07;9.10;99.90
43143;DHT22;28750;59.842;17.584;2022-08-25T02:36:35;9.10;99.90
43143;DHT22;28750;59.842;17.584;2022-08-25T02:39:04;9.10;99.90
43143;DHT22;28750;59.842;17.584;2022-08-25T02:41:32;9.10;99.90
43143;DHT22;28750;59.842;17.584;2022-08-25T02:44:01;9.10;99.90
43143;DHT22;28750;59.842;17.584;2022-08-25T02:46:29;9.00;99.90
43143;DHT22;28750;59.842;17.584;2022-08-25T02:48:56;9.00;99.90
43143;DHT22;28750;59.842;17.584;2022-08-25T02:51:24;9.00;99.90
43143;DHT22;28750;59.842;17.584;2022-08-25T02:53:52;8.90;99.90
43143;DHT22;28750;59.842;17.584;2022-08-25T02:56:20;8.90;99.90
43143;DHT22;28750;59.842;17.584;2022-08-25T02:58:47;8.80;99.90
43143;DHT22;28750;59.842;17.584;2022-08-25T03:01:15;8.90;99.90
43143;DHT22;28750;59.842;17.584;2022-08-25T03:03:44;9.00;99.90
43143;DHT22;28750;59.842;17.584;2022-08-25T03:06:14;9.10;99.90
43143;DHT22;28750;59.842;17.584;2022-08-25T03:08:43;9.10;99.90
43143;DHT22;28750;59.842;17.584;2022-08-25T03:11:10;9.10;99.90
43143;DHT22;28750;59.842;17.584;2022-08-25T03:13:37;9.10;99.90
43143;DHT22;28750;59.842;17.584;2022-08-25T03:16:06;9.00;99.90
43143;DHT22;28750;59.842;17.584;2022-08-25T03:18:34;9.00;99.90
43143;DHT22;28750;59.842;17.584;2022-08-25T03:21:01;9.00;99.90
43143;DHT22;28750;59.842;17.584;2022-08-25T03:23:28;9.00;99.90
43143;DHT22;28750;59.842;17.584;2022-08-25T03:25:55;9.00;99.90
43143;DHT22;28750;59.842;17.584;2022-08-25T03:28:40;8.70;99.90
43143;DHT22;28750;59.842;17.584;2022-08-25T03:31:07;8.60;99.90
43143;DHT22;28750;59.842;17.584;2022-08-25T03:33:35;8.70;99.90
43143;DHT22;28750;59.842;17.584;2022-08-25T03:36:05;8.70;99.90
43143;DHT22;28750;59.842;17.584;2022-08-25T03:38:33;8.80;99.90
43143;DHT22;28750;59.842;17.584;2022-08-25T03:41:00;8.90;99.90
43143;DHT22;28750;59.842;17.584;2022-08-25T03:43:27;9.00;99.90
43143;DHT22;28750;59.842;17.584;2022-08-25T03:45:54;9.00;99.90
43143;DHT22;28750;59.842;17.584;2022-08-25T03:48:21;8.90;99.90
43143;DHT22;28750;59.842;17.584;2022-08-25T03:50:50;9.00;99.90
43143;DHT22;28750;59.842;17.584;2022-08-25T03:53:19;9.10;99.90
43143;DHT22;28750;59.842;17.584;2022-08-25T03:55:46;9.30;99.90
43143;DHT22;28750;59.842;17.584;2022-08-25T03:58:13;9.30;99.90
43143;DHT22;28750;59.842;17.584;2022-08-25T04:00:40;9.30;99.90
43143;DHT22;28750;59.842;17.584;2022-08-25T04:03:07;9.30;99.90
43143;DHT22;28750;59.842;17.584;2022-08-25T04:05:34;9.30;99.90
43143;DHT22;28750;59.842;17.584;2022-08-25T04:08:01;9.40;99.90
43143;DHT22;28750;59.842;17.584;2022-08-25T04:10:29;9.60;99.90
43143;DHT22;28750;59.842;17.584;2022-08-25T04:12:56;9.60;99.90
43143;DHT22;28750;59.842;17.584;2022-08-25T04:15:23;9.70;99.90
43143;DHT22;28750;59.842;17.584;2022-08-25T04:17:50;9.80;99.90
43143;DHT22;28750;59.842;17.584;2022-08-25T04:20:18;9.80;99.90
43143;DHT22;28750;59.842;17.584;2022-08-25T04:22:45;9.90;99.90
43143;DHT22;28750;59.842;17.584;2022-08-25T04:25:12;9.80;99.90
43143;DHT22;28750;59.842;17.584;2022-08-25T04:27:40;9.90;99.90
43143;DHT22;28750;59.842;17.584;2022-08-25T04:30:07;10.00;99.90
43143;DHT22;28750;59.842;17.584;2022-08-25T04:32:35;10.00;99.90
43143;DHT22;28750;59.842;17.584;2022-08-25T04:35:04;10.20;99.90
43143;DHT22;28750;59.842;17.584;2022-08-25T04:37:31;10.30;99.90
43143;DHT22;28750;59.842;17.584;2022-08-25T04:39:58;10.50;99.90
43143;DHT22;28750;59.842;17.584;2022-08-25T04:42:25;10.70;99.90
43143;DHT22;28750;59.842;17.584;2022-08-25T04:44:53;10.80;99.90
43143;DHT22;28750;59.842;17.584;2022-08-25T04:47:20;10.90;99.90
43143;DHT22;28750;59.842;17.584;2022-08-25T04:49:48;10.90;99.90
43143;DHT22;28750;59.842;17.584;2022-08-25T04:52:15;11.00;99.90
43143;DHT22;28750;59.842;17.584;2022-08-25T04:54:42;11.20;99.90
43143;DHT22;28750;59.842;17.584;2022-08-25T04:57:10;11.70;99.90
43143;DHT22;28750;59.842;17.584;2022-08-25T04:59:37;12.10;99.90
43143;DHT22;28750;59.842;17.584;2022-08-25T05:02:05;12.40;99.90
43143;DHT22;28750;59.842;17.584;2022-08-25T05:04:34;12.30;99.90
43143;DHT22;28750;59.842;17.584;2022-08-25T05:07:01;12.40;99.90
43143;DHT22;28750;59.842;17.584;2022-08-25T05:09:29;12.60;99.90
43143;DHT22;28750;59.842;17.584;2022-08-25T05:11:56;12.30;99.90
43143;DHT22;28750;59.842;17.584;2022-08-25T05:14:23;12.10;99.90
43143;DHT22;28750;59.842;17.584;2022-08-25T05:16:50;12.10;99.90
43143;DHT22;28750;59.842;17.584;2022-08-25T05:19:17;12.30;99.90
43143;DHT22;28750;59.842;17.584;2022-08-25T05:21:44;12.40;99.90
43143;DHT22;28750;59.842;17.584;2022-08-25T05:24:11;12.60;99.90
43143;DHT22;28750;59.842;17.584;2022-08-25T05:26:38;13.20;99.90
43143;DHT22;28750;59.842;17.584;2022-08-25T05:29:05;13.70;99.90
43143;DHT22;28750;59.842;17.584;2022-08-25T05:31:34;14.00;99.90
43143;DHT22;28750;59.842;17.584;2022-08-25T05:34:05;14.10;99.90
43143;DHT22;28750;59.842;17.584;2022-08-25T05:36:32;14.30;99.90
43143;DHT22;28750;59.842;17.584;2022-08-25T05:39:00;14.30;99.90
43143;DHT22;28750;59.842;17.584;2022-08-25T05:41:29;14.00;99.90
43143;DHT22;28750;59.842;17.584;2022-08-25T05:43:56;13.60;99.90
43143;DHT22;28750;59.842;17.584;2022-08-25T05:46:24;13.60;99.90
43143;DHT22;28750;59.842;17.584;2022-08-25T05:48:51;13.90;99.90
43143;DHT22;28750;59.842;17.584;2022-08-25T05:51:19;14.00;99.90
43143;DHT22;28750;59.842;17.584;2022-08-25T05:53:49;14.00;99.90
43143;DHT22;28750;59.842;17.584;2022-08-25T05:56:16;13.90;99.90
43143;DHT22;28750;59.842;17.584;2022-08-25T05:58:44;14.10;99.90
43143;DHT22;28750;59.842;17.584;2022-08-25T06:01:26;14.20;99.90
43143;DHT22;28750;59.842;17.584;2022-08-25T06:04:12;14.20;99.90
43143;DHT22;28750;59.842;17.584;2022-08-25T06:06:40;14.00;99.90
43143;DHT22;28750;59.842;17.584;2022-08-25T06:09:08;13.90;99.90
43143;DHT22;28750;59.842;17.584;2022-08-25T06:11:37;14.10;99.90
43143;DHT22;28750;59.842;17.584;2022-08-25T06:14:06;14.40;99.90
43143;DHT22;28750;59.842;17.584;2022-08-25T06:16:33;14.80;99.90
43143;DHT22;28750;59.842;17.584;2022-08-25T06:19:00;15.10;99.90
43143;DHT22;28750;59.842;17.584;2022-08-25T06:21:27;15.30;99.90
43143;DHT22;28750;59.842;17.584;2022-08-25T06:23:55;15.70;99.90
43143;DHT22;28750;59.842;17.584;2022-08-25T06:26:22;15.80;99.90
43143;DHT22;28750;59.842;17.584;2022-08-25T06:28:50;15.60;99.90
43143;DHT22;28750;59.842;17.584;2022-08-25T06:31:18;15.40;99.90
43143;DHT22;28750;59.842;17.584;2022-08-25T06:33:47;15.40;99.90
43143;DHT22;28750;59.842;17.584;2022-08-25T06:36:14;15.40;99.90
43143;DHT22;28750;59.842;17.584;2022-08-25T06:38:41;15.50;99.90
43143;DHT22;28750;59.842;17.584;2022-08-25T06:41:08;15.60;99.90
43143;DHT22;28750;59.842;17.584;2022-08-25T06:43:38;15.80;99.90
43143;DHT22;28750;59.842;17.584;2022-08-25T06:46:12;16.10;99.90
43143;DHT22;28750;59.842;17.584;2022-08-25T06:48:39;16.20;99.90
43143;DHT22;28750;59.842;17.584;2022-08-25T06:51:08;16.40;77.20
43143;DHT22;28750;59.842;17.584;2022-08-25T06:53:36;16.60;51.80
43143;DHT22;28750;59.842;17.584;2022-08-25T06:56:04;16.50;29.10
43143;DHT22;28750;59.842;17.584;2022-08-25T06:58:32;16.40;61.40
43143;DHT22;28750;59.842;17.584;2022-08-25T07:01:10;16.50;63.60
43143;DHT22;28750;59.842;17.584;2022-08-25T07:03:37;16.60;98.90
43143;DHT22;28750;59.842;17.584;2022-08-25T07:06:05;16.70;78.70
43143;DHT22;28750;59.842;17.584;2022-08-25T07:08:33;16.90;29.00
43143;DHT22;28750;59.842;17.584;2022-08-25T07:11:06;16.90;22.20
43143;DHT22;28750;59.842;17.584;2022-08-25T07:13:34;16.90;1.00
43143;DHT22;28750;59.842;17.584;2022-08-25T07:16:01;17.10;1.00
43143;DHT22;28750;59.842;17.584;2022-08-25T07:18:28;17.10;1.00
43143;DHT22;28750;59.842;17.584;2022-08-25T07:20:55;17.20;1.00
43143;DHT22;28750;59.842;17.584;2022-08-25T07:23:23;17.20;1.00
43143;DHT22;28750;59.842;17.584;2022-08-25T07:25:51;17.50;99.90
43143;DHT22;28750;59.842;17.584;2022-08-25T07:28:20;17.80;99.90
43143;DHT22;28750;59.842;17.584;2022-08-25T07:30:49;17.80;99.90
43143;DHT22;28750;59.842;17.584;2022-08-25T07:33:16;18.20;99.90
43143;DHT22;28750;59.842;17.584;2022-08-25T07:35:43;18.70;99.90
43143;DHT22;28750;59.842;17.584;2022-08-25T07:38:09;18.70;99.90
43143;DHT22;28750;59.842;17.584;2022-08-25T07:40:37;19.00;99.90
43143;DHT22;28750;59.842;17.584;2022-08-25T07:43:06;19.40;99.90
43143;DHT22;28750;59.842;17.584;2022-08-25T07:45:35;19.70;1.00
43143;DHT22;28750;59.842;17.584;2022-08-25T07:48:09;20.00;99.90
43143;DHT22;28750;59.842;17.584;2022-08-25T07:50:39;20.40;99.90
43143;DHT22;28750;59.842;17.584;2022-08-25T07:53:09;20.70;99.90
43143;DHT22;28750;59.842;17.584;2022-08-25T07:55:36;20.70;99.90
43143;DHT22;28750;59.842;17.584;2022-08-25T07:58:05;21.00;99.90
43143;DHT22;28750;59.842;17.584;2022-08-25T08:00:33;21.10;67.30
43143;DHT22;28750;59.842;17.584;2022-08-25T08:03:03;21.70;99.90
43143;DHT22;28750;59.842;17.584;2022-08-25T08:05:31;21.80;1.00
43143;DHT22;28750;59.842;17.584;2022-08-25T08:07:59;21.80;99.90
43143;DHT22;28750;59.842;17.584;2022-08-25T08:10:27;21.90;99.90
43143;DHT22;28750;59.842;17.584;2022-08-25T08:12:54;22.20;99.90
43143;DHT22;28750;59.842;17.584;2022-08-25T08:15:21;22.20;1.00
43143;DHT22;28750;59.842;17.584;2022-08-25T08:17:48;22.50;99.90
43143;DHT22;28750;59.842;17.584;2022-08-25T08:20:15;22.40;99.90
43143;DHT22;28750;59.842;17.584;2022-08-25T08:22:43;22.70;99.90
43143;DHT22;28750;59.842;17.584;2022-08-25T08:25:11;22.10;99.90
43143;DHT22;28750;59.842;17.584;2022-08-25T08:27:38;21.60;99.90
43143;DHT22;28750;59.842;17.584;2022-08-25T08:30:06;22.00;99.90
43143;DHT22;28750;59.842;17.584;2022-08-25T08:32:33;22.10;99.90
43143;DHT22;28750;59.842;17.584;2022-08-25T08:35:01;22.10;99.90
43143;DHT22;28750;59.842;17.584;2022-08-25T08:37:27;22.30;99.90
43143;DHT22;28750;59.842;17.584;2022-08-25T08:39:55;21.90;99.90
43143;DHT22;28750;59.842;17.584;2022-08-25T08:47:49;21.70;99.90
43143;DHT22;28750;59.842;17.584;2022-08-25T08:50:32;21.60;99.90
43143;DHT22;28750;59.842;17.584;2022-08-25T08:53:33;22.00;99.90
43143;DHT22;28750;59.842;17.584;2022-08-25T08:56:08;22.10;99.90
43143;DHT22;28750;59.842;17.584;2022-08-25T08:58:49;21.90;99.90
43143;DHT22;28750;59.842;17.584;2022-08-25T09:01:51;21.30;99.90
43143;DHT22;28750;59.842;17.584;2022-08-25T09:07:09;21.30;99.90
43143;DHT22;28750;59.842;17.584;2022-08-25T09:09:40;21.30;99.90
43143;DHT22;28750;59.842;17.584;2022-08-25T09:15:17;21.30;99.90
43143;DHT22;28750;59.842;17.584;2022-08-25T09:18:04;21.60;99.90
43143;DHT22;28750;59.842;17.584;2022-08-25T09:28:51;21.80;99.90
43143;DHT22;28750;59.842;17.584;2022-08-25T09:31:26;21.70;99.90
43143;DHT22;28750;59.842;17.584;2022-08-25T09:34:00;21.90;99.90
43143;DHT22;28750;59.842;17.584;2022-08-25T09:36:27;22.30;99.90
43143;DHT22;28750;59.842;17.584;2022-08-25T09:38:55;22.80;99.90
43143;DHT22;28750;59.842;17.584;2022-08-25T09:41:42;22.90;79.50
43143;DHT22;28750;59.842;17.584;2022-08-25T09:44:24;23.20;90.00
43143;DHT22;28750;59.842;17.584;2022-08-25T09:49:52;24.70;14.20
43143;DHT22;28750;59.842;17.584;2022-08-25T09:52:38;24.80;1.00
43143;DHT22;28750;59.842;17.584;2022-08-25T10:00:15;26.00;1.00
43143;DHT22;28750;59.842;17.584;2022-08-25T10:03:08;26.50;1.00
43143;DHT22;28750;59.842;17.584;2022-08-25T10:05:35;26.60;1.00
43143;DHT22;28750;59.842;17.584;2022-08-25T10:08:12;26.30;99.90
43143;DHT22;28750;59.842;17.584;2022-08-25T10:10:45;26.50;99.90
43143;DHT22;28750;59.842;17.584;2022-08-25T10:13:19;26.50;1.00
43143;DHT22;28750;59.842;17.584;2022-08-25T10:16:07;26.80;99.90
43143;DHT22;28750;59.842;17.584;2022-08-25T10:18:34;26.50;99.90
43143;DHT22;28750;59.842;17.584;2022-08-25T10:21:12;27.20;1.00
43143;DHT22;28750;59.842;17.584;2022-08-25T10:23:52;26.60;99.90
43143;DHT22;28750;59.842;17.584;2022-08-25T10:33:06;27.80;99.90
43143;DHT22;28750;59.842;17.584;2022-08-25T10:44:17;28.50;99.90
43143;DHT22;28750;59.842;17.584;2022-08-25T10:52:59;28.80;99.90
43143;DHT22;28750;59.842;17.584;2022-08-25T11:01:18;28.20;99.90
43143;DHT22;28750;59.842;17.584;2022-08-25T11:03:58;27.50;99.90
43143;DHT22;28750;59.842;17.584;2022-08-25T11:09:22;28.40;99.90
43143;DHT22;28750;59.842;17.584;2022-08-25T11:14:45;27.30;99.90
43143;DHT22;28750;59.842;17.584;2022-08-25T11:17:52;28.20;99.90
43143;DHT22;28750;59.842;17.584;2022-08-25T11:20:27;28.70;99.90
43143;DHT22;28750;59.842;17.584;2022-08-25T11:23:23;29.30;99.90
43143;DHT22;28750;59.842;17.584;2022-08-25T11:25:56;29.40;99.90
43143;DHT22;28750;59.842;17.584;2022-08-25T11:28:52;27.40;99.90
43143;DHT22;28750;59.842;17.584;2022-08-25T11:31:22;28.20;99.90
43143;DHT22;28750;59.842;17.584;2022-08-25T11:33:50;29.10;99.90
43143;DHT22;28750;59.842;17.584;2022-08-25T11:36:31;27.70;99.90
43143;DHT22;28750;59.842;17.584;2022-08-25T11:39:11;27.80;99.90
43143;DHT22;28750;59.842;17.584;2022-08-25T11:42:04;28.40;99.90
43143;DHT22;28750;59.842;17.584;2022-08-25T11:44:51;29.60;99.90
43143;DHT22;28750;59.842;17.584;2022-08-25T11:53:35;28.80;99.90
43143;DHT22;28750;59.842;17.584;2022-08-25T11:56:06;28.90;99.90
43143;DHT22;28750;59.842;17.584;2022-08-25T11:58:44;29.10;99.90
43143;DHT22;28750;59.842;17.584;2022-08-25T12:04:36;28.50;99.90
43143;DHT22;28750;59.842;17.584;2022-08-25T12:13:22;27.90;71.80
43143;DHT22;28750;59.842;17.584;2022-08-25T12:18:17;29.30;99.90
43143;DHT22;28750;59.842;17.584;2022-08-25T12:31:19;27.80;99.90
43143;DHT22;28750;59.842;17.584;2022-08-25T12:33:52;28.10;99.90
43143;DHT22;28750;59.842;17.584;2022-08-25T12:36:30;28.10;99.90
43143;DHT22;28750;59.842;17.584;2022-08-25T12:39:19;27.60;99.90
43143;DHT22;28750;59.842;17.584;2022-08-25T12:42:06;26.80;99.90
43143;DHT22;28750;59.842;17.584;2022-08-25T12:44:44;27.00;99.90
43143;DHT22;28750;59.842;17.584;2022-08-25T12:47:26;26.80;99.90
43143;DHT22;28750;59.842;17.584;2022-08-25T12:55:56;26.60;99.90
43143;DHT22;28750;59.842;17.584;2022-08-25T12:58:34;26.60;99.90
43143;DHT22;28750;59.842;17.584;2022-08-25T13:01:16;26.30;99.90
43143;DHT22;28750;59.842;17.584;2022-08-25T13:12:04;25.30;99.90
43143;DHT22;28750;59.842;17.584;2022-08-25T13:14:40;25.10;99.90
43143;DHT22;28750;59.842;17.584;2022-08-25T13:17:08;24.80;99.90
43143;DHT22;28750;59.842;17.584;2022-08-25T13:19:36;24.50;99.90
43143;DHT22;28750;59.842;17.584;2022-08-25T13:22:14;24.20;99.90
43143;DHT22;28750;59.842;17.584;2022-08-25T13:24:44;24.30;99.90
43143;DHT22;28750;59.842;17.584;2022-08-25T13:27:27;24.00;1.00
43143;DHT22;28750;59.842;17.584;2022-08-25T13:29:56;24.00;1.00
43143;DHT22;28750;59.842;17.584;2022-08-25T13:32:31;23.90;99.90
43143;DHT22;28750;59.842;17.584;2022-08-25T13:35:20;23.80;99.90
43143;DHT22;28750;59.842;17.584;2022-08-25T13:37:48;23.90;99.90
43143;DHT22;28750;59.842;17.584;2022-08-25T13:40:22;24.00;99.90
43143;DHT22;28750;59.842;17.584;2022-08-25T13:43:02;24.10;99.90
43143;DHT22;28750;59.842;17.584;2022-08-25T13:45:32;24.00;1.00
43143;DHT22;28750;59.842;17.584;2022-08-25T13:48:02;24.20;99.90
43143;DHT22;28750;59.842;17.584;2022-08-25T13:50:33;24.40;99.90
43143;DHT22;28750;59.842;17.584;2022-08-25T13:53:25;24.30;99.90
43143;DHT22;28750;59.842;17.584;2022-08-25T13:55:53;24.20;99.90
43143;DHT22;28750;59.842;17.584;2022-08-25T13:58:32;24.10;99.90
43143;DHT22;28750;59.842;17.584;2022-08-25T14:03:44;23.80;99.90
43143;DHT22;28750;59.842;17.584;2022-08-25T14:08:45;24.00;99.90
43143;DHT22;28750;59.842;17.584;2022-08-25T14:11:32;23.80;99.90
43143;DHT22;28750;59.842;17.584;2022-08-25T14:14:05;23.90;99.90
43143;DHT22;28750;59.842;17.584;2022-08-25T14:16:38;23.90;1.00
43143;DHT22;28750;59.842;17.584;2022-08-25T14:19:13;23.80;99.90
43143;DHT22;28750;59.842;17.584;2022-08-25T14:21:41;23.80;1.00
43143;DHT22;28750;59.842;17.584;2022-08-25T14:24:08;23.90;99.90
43143;DHT22;28750;59.842;17.584;2022-08-25T14:26:35;24.00;1.00
43143;DHT22;28750;59.842;17.584;2022-08-25T14:29:03;24.10;99.90
43143;DHT22;28750;59.842;17.584;2022-08-25T14:31:35;24.20;1.00
43143;DHT22;28750;59.842;17.584;2022-08-25T14:34:15;24.30;1.00
43143;DHT22;28750;59.842;17.584;2022-08-25T14:36:43;24.30;99.90
43143;DHT22;28750;59.842;17.584;2022-08-25T14:39:11;24.20;99.90
43143;DHT22;28750;59.842;17.584;2022-08-25T14:41:40;24.30;99.90
43143;DHT22;28750;59.842;17.584;2022-08-25T14:44:09;24.40;1.00
43143;DHT22;28750;59.842;17.584;2022-08-25T14:46:40;24.30;99.90
43143;DHT22;28750;59.842;17.584;2022-08-25T14:49:11;24.20;99.90
43143;DHT22;28750;59.842;17.584;2022-08-25T14:51:41;24.30;1.00
43143;DHT22;28750;59.842;17.584;2022-08-25T14:54:13;24.50;99.90
43143;DHT22;28750;59.842;17.584;2022-08-25T14:56:44;24.20;99.90
43143;DHT22;28750;59.842;17.584;2022-08-25T14:59:12;24.00;99.90
43143;DHT22;28750;59.842;17.584;2022-08-25T15:01:40;23.70;1.00
43143;DHT22;28750;59.842;17.584;2022-08-25T15:04:13;23.80;99.90
43143;DHT22;28750;59.842;17.584;2022-08-25T15:06:41;23.70;99.90
43143;DHT22;28750;59.842;17.584;2022-08-25T15:09:14;23.70;99.90
43143;DHT22;28750;59.842;17.584;2022-08-25T15:11:47;23.40;99.90
43143;DHT22;28750;59.842;17.584;2022-08-25T15:14:16;23.30;1.00
43143;DHT22;28750;59.842;17.584;2022-08-25T15:16:47;23.20;1.00
43143;DHT22;28750;59.842;17.584;2022-08-25T15:19:16;23.30;99.90
43143;DHT22;28750;59.842;17.584;2022-08-25T15:21:44;23.20;1.00
43143;DHT22;28750;59.842;17.584;2022-08-25T15:24:13;23.20;99.90
43143;DHT22;28750;59.842;17.584;2022-08-25T15:26:51;23.30;99.90
43143;DHT22;28750;59.842;17.584;2022-08-25T15:29:18;23.20;99.90
43143;DHT22;28750;59.842;17.584;2022-08-25T15:31:46;22.90;99.90
43143;DHT22;28750;59.842;17.584;2022-08-25T15:34:13;23.00;1.00
43143;DHT22;28750;59.842;17.584;2022-08-25T15:36:41;23.00;99.90
43143;DHT22;28750;59.842;17.584;2022-08-25T15:39:08;22.90;99.90
43143;DHT22;28750;59.842;17.584;2022-08-25T15:41:36;22.50;1.00
43143;DHT22;28750;59.842;17.584;2022-08-25T15:44:04;22.30;5.20
43143;DHT22;28750;59.842;17.584;2022-08-25T15:46:32;22.50;1.00
43143;DHT22;28750;59.842;17.584;2022-08-25T15:49:01;22.80;1.00
43143;DHT22;28750;59.842;17.584;2022-08-25T15:51:28;22.70;1.00
43143;DHT22;28750;59.842;17.584;2022-08-25T15:53:56;22.60;1.00
43143;DHT22;28750;59.842;17.584;2022-08-25T15:56:23;22.90;99.90
43143;DHT22;28750;59.842;17.584;2022-08-25T15:58:51;23.10;99.90
43143;DHT22;28750;59.842;17.584;2022-08-25T16:01:24;23.00;99.90
43143;DHT22;28750;59.842;17.584;2022-08-25T16:03:51;22.80;1.00
43143;DHT22;28750;59.842;17.584;2022-08-25T16:06:19;22.90;99.90
43143;DHT22;28750;59.842;17.584;2022-08-25T16:08:46;22.50;1.00
43143;DHT22;28750;59.842;17.584;2022-08-25T16:11:21;22.20;1.00
43143;DHT22;28750;59.842;17.584;2022-08-25T16:13:50;22.20;1.00
43143;DHT22;28750;59.842;17.584;2022-08-25T16:16:19;22.40;1.00
43143;DHT22;28750;59.842;17.584;2022-08-25T16:18:46;22.40;1.00
43143;DHT22;28750;59.842;17.584;2022-08-25T16:21:16;22.50;1.00
43143;DHT22;28750;59.842;17.584;2022-08-25T16:23:44;22.30;1.00
43143;DHT22;28750;59.842;17.584;2022-08-25T16:26:12;22.20;1.00
43143;DHT22;28750;59.842;17.584;2022-08-25T16:28:41;22.30;1.00
43143;DHT22;28750;59.842;17.584;2022-08-25T16:31:10;22.10;1.00
43143;DHT22;28750;59.842;17.584;2022-08-25T16:33:38;22.30;1.00
43143;DHT22;28750;59.842;17.584;2022-08-25T16:36:11;22.50;1.00
43143;DHT22;28750;59.842;17.584;2022-08-25T16:38:39;22.40;1.00
43143;DHT22;28750;59.842;17.584;2022-08-25T16:41:08;22.40;1.00
43143;DHT22;28750;59.842;17.584;2022-08-25T16:43:35;22.30;1.00
43143;DHT22;28750;59.842;17.584;2022-08-25T16:46:05;22.10;1.00
43143;DHT22;28750;59.842;17.584;2022-08-25T16:48:33;22.00;1.00
43143;DHT22;28750;59.842;17.584;2022-08-25T16:51:00;22.00;1.00
43143;DHT22;28750;59.842;17.584;2022-08-25T16:53:31;21.80;1.00
43143;DHT22;28750;59.842;17.584;2022-08-25T16:56:15;21.60;1.00
43143;DHT22;28750;59.842;17.584;2022-08-25T16:58:42;21.70;1.00
43143;DHT22;28750;59.842;17.584;2022-08-25T17:01:11;21.50;1.00
43143;DHT22;28750;59.842;17.584;2022-08-25T17:03:39;21.50;15.00
43143;DHT22;28750;59.842;17.584;2022-08-25T17:06:08;21.20;80.90
43143;DHT22;28750;59.842;17.584;2022-08-25T17:08:35;21.10;33.20
43143;DHT22;28750;59.842;17.584;2022-08-25T17:11:14;21.10;33.90
43143;DHT22;28750;59.842;17.584;2022-08-25T17:13:44;21.10;99.90
43143;DHT22;28750;59.842;17.584;2022-08-25T17:16:13;21.10;54.30
43143;DHT22;28750;59.842;17.584;2022-08-25T17:18:40;20.90;99.90
43143;DHT22;28750;59.842;17.584;2022-08-25T17:21:11;21.30;8.80
43143;DHT22;28750;59.842;17.584;2022-08-25T17:23:39;21.30;14.40
43143;DHT22;28750;59.842;17.584;2022-08-25T17:26:08;21.30;6.70
43143;DHT22;28750;59.842;17.584;2022-08-25T17:28:36;21.20;45.00
43143;DHT22;28750;59.842;17.584;2022-08-25T17:31:04;21.30;2.20
43143;DHT22;28750;59.842;17.584;2022-08-25T17:33:31;21.10;16.40
43143;DHT22;28750;59.842;17.584;2022-08-25T17:35:58;21.30;1.00
43143;DHT22;28750;59.842;17.584;2022-08-25T17:38:26;21.50;1.00